Time;durP1;ratioP1;P1;durP2;ratioP2;P2;SDS_P1;SDS_P2;PMS_P1;PMS_P2;Temp;Humidity;BMP_temperature;BMP_pressure;BME280_temperature;BME280_humidity;BME280_pressure;Samples;Min_cycle;Max_cycle;Signal;HPM_P1;HPM_P2
2022/12/03 00:00:25;;;;;;;53.67;32.33;;;1.60;99.90;;;;;;5073722;28;20268;-48
2022/12/03 00:02:52;;;;;;;59.63;35.22;;;1.70;99.90;;;;;;5074862;28;20199;-47
2022/12/03 00:05:19;;;;;;;53.38;30.30;;;1.70;99.90;;;;;;5056878;28;20254;-49
2022/12/03 00:07:46;;;;;;;54.05;33.83;;;1.50;99.90;;;;;;5056683;28;20274;-47
2022/12/03 00:10:13;;;;;;;58.20;33.92;;;1.40;99.90;;;;;;5073664;28;20215;-48
2022/12/03 00:12:40;;;;;;;51.20;33.30;;;1.50;99.90;;;;;;5074140;28;20191;-49
2022/12/03 00:15:09;;;;;;;51.10;31.83;;;1.40;99.90;;;;;;5073859;28;20223;-49
2022/12/03 00:17:35;;;;;;;46.88;30.92;;;1.60;99.90;;;;;;5074044;28;20191;-47
2022/12/03 00:20:02;;;;;;;53.53;32.97;;;1.60;99.90;;;;;;5073083;28;20203;-48
2022/12/03 00:22:29;;;;;;;52.45;32.53;;;1.60;99.90;;;;;;5074044;28;20195;-46
2022/12/03 00:24:55;;;;;;;51.97;33.40;;;1.30;99.90;;;;;;5055751;28;20234;-47
2022/12/03 00:27:22;;;;;;;54.45;33.90;;;1.40;99.90;;;;;;5073976;28;20195;-48
2022/12/03 00:29:50;;;;;;;59.17;35.40;;;1.40;99.90;;;;;;5055068;28;20280;-47
2022/12/03 00:32:17;;;;;;;50.97;33.35;;;1.40;99.90;;;;;;5073809;28;20230;-48
2022/12/03 00:34:43;;;;;;;57.60;33.85;;;1.70;99.90;;;;;;5073769;28;20230;-47
2022/12/03 00:37:10;;;;;;;57.00;34.72;;;0.90;99.90;;;;;;5073753;28;20562;-48
2022/12/03 00:39:37;;;;;;;57.38;36.10;;;1.60;99.90;;;;;;5072617;28;20685;-48
2022/12/03 00:42:04;;;;;;;51.38;33.17;;;1.60;99.90;;;;;;5055403;28;20214;-47
2022/12/03 00:44:30;;;;;;;53.92;34.15;;;1.40;99.90;;;;;;5073353;28;20241;-48
2022/12/03 00:46:58;;;;;;;54.35;34.47;;;0.80;99.90;;;;;;5073392;28;20567;-48
2022/12/03 00:49:25;;;;;;;56.08;35.95;;;1.60;99.90;;;;;;5054778;28;20222;-46
2022/12/03 00:51:51;;;;;;;50.70;33.60;;;1.30;99.90;;;;;;5073461;28;20200;-47
2022/12/03 00:54:18;;;;;;;53.58;35.20;;;1.10;99.90;;;;;;5073274;28;20319;-47
2022/12/03 00:56:44;;;;;;;55.50;35.60;;;1.60;99.90;;;;;;5073365;28;20238;-48
2022/12/03 00:59:11;;;;;;;50.60;32.83;;;1.40;99.90;;;;;;5072910;28;20222;-47
2022/12/03 01:01:38;;;;;;;56.80;32.53;;;1.80;99.90;;;;;;5072717;28;20267;-48
2022/12/03 01:04:06;;;;;;;51.45;34.45;;;1.50;99.90;;;;;;5073212;28;20226;-47
2022/12/03 01:06:51;;;;;;;51.22;32.83;;;1.80;99.90;;;;;;5073363;28;20596;-47
2022/12/03 01:09:18;;;;;;;55.50;35.70;;;1.40;99.90;;;;;;5054142;28;20198;-47
2022/12/03 01:11:45;;;;;;;56.85;35.28;;;1.30;99.90;;;;;;5073346;28;20564;-47
2022/12/03 01:14:14;;;;;;;58.38;36.03;;;1.70;99.90;;;;;;5073091;28;20247;-47
2022/12/03 01:16:41;;;;;;;63.22;34.53;;;1.30;99.90;;;;;;5073407;28;20222;-48
2022/12/03 01:19:14;;;;;;;53.13;35.30;;;1.70;99.90;;;;;;5072704;28;20195;-47
2022/12/03 01:21:41;;;;;;;57.42;35.42;;;1.30;99.90;;;;;;5055333;28;20188;-47
2022/12/03 01:24:08;;;;;;;50.40;33.55;;;1.60;99.90;;;;;;5073365;28;20215;-48
2022/12/03 01:26:34;;;;;;;57.03;35.53;;;1.60;99.90;;;;;;5073458;28;20210;-48
2022/12/03 01:29:02;;;;;;;54.70;34.13;;;2.00;99.90;;;;;;5072745;28;20230;-47
2022/12/03 01:34:14;;;;;;;58.28;36.35;;;1.90;99.90;;;;;;5073394;28;20586;-48
2022/12/03 01:36:42;;;;;;;56.00;33.75;;;1.40;99.90;;;;;;5073117;28;20199;-47
2022/12/03 01:39:09;;;;;;;52.10;35.22;;;1.20;99.90;;;;;;5072215;28;20276;-47
2022/12/03 01:41:36;;;;;;;60.17;35.33;;;1.40;99.90;;;;;;5054769;28;20543;-46
2022/12/03 01:44:06;;;;;;;54.28;36.88;;;0.90;99.90;;;;;;5072863;28;20295;-48
2022/12/03 01:46:37;;;;;;;55.35;34.65;;;1.40;99.90;;;;;;5072705;28;20224;-47
2022/12/03 01:49:04;;;;;;;56.30;35.78;;;1.30;99.90;;;;;;5071839;28;20194;-48
2022/12/03 01:51:32;;;;;;;60.67;35.05;;;1.60;99.90;;;;;;5071862;28;20226;-48
2022/12/03 01:54:00;;;;;;;61.10;35.92;;;1.40;99.90;;;;;;5072468;28;20602;-47
2022/12/03 01:56:27;;;;;;;60.55;38.75;;;1.30;99.90;;;;;;5072074;28;20210;-48
2022/12/03 01:58:54;;;;;;;54.17;35.17;;;1.40;99.90;;;;;;5071422;28;20201;-47
2022/12/03 02:01:20;;;;;;;58.03;35.70;;;1.30;99.90;;;;;;5072128;28;20590;-47
2022/12/03 02:03:47;;;;;;;56.65;34.97;;;1.30;99.90;;;;;;5071896;28;20206;-46
2022/12/03 02:06:16;;;;;;;55.80;34.60;;;1.20;99.90;;;;;;5071862;28;20206;-47
2022/12/03 02:08:45;;;;;;;57.45;34.33;;;1.20;99.90;;;;;;5071273;28;20749;-48
2022/12/03 02:11:20;;;;;;;51.60;33.10;;;1.30;99.90;;;;;;5053724;28;20214;-47
2022/12/03 02:13:50;;;;;;;57.75;34.97;;;1.30;99.90;;;;;;5072280;28;20198;-48
2022/12/03 02:16:17;;;;;;;56.45;36.25;;;1.20;99.90;;;;;;5071635;28;20233;-47
2022/12/03 02:18:44;;;;;;;51.53;33.78;;;1.30;99.90;;;;;;5071109;28;20648;-47
2022/12/03 02:21:18;;;;;;;54.05;34.20;;;1.40;99.90;;;;;;5071626;28;20194;-48
2022/12/03 02:23:58;;;;;;;53.85;31.50;;;1.10;99.90;;;;;;5071824;28;20563;-48
2022/12/03 02:26:26;;;;;;;59.20;34.40;;;1.10;99.90;;;;;;5071510;28;20199;-47
2022/12/03 02:28:52;;;;;;;47.75;32.90;;;1.50;99.90;;;;;;5070835;28;20200;-47
2022/12/03 02:31:19;;;;;;;52.42;35.20;;;1.10;99.90;;;;;;5071745;28;20222;-47
2022/12/03 02:33:45;;;;;;;52.13;32.88;;;1.20;99.90;;;;;;5071308;28;20663;-48
2022/12/03 02:36:12;;;;;;;50.00;33.45;;;1.20;99.90;;;;;;5071722;28;20200;-46
2022/12/03 02:38:40;;;;;;;56.88;34.20;;;1.30;99.90;;;;;;5070922;28;20203;-48
2022/12/03 02:42:33;;;;;;;44.70;31.27;;;1.50;99.90;;;;;;5072302;28;20207;-48
2022/12/03 02:44:01;;;;;;;54.20;34.72;;;1.40;99.90;;;;;;5072046;28;20632;-48
2022/12/03 02:46:28;;;;;;;51.83;33.60;;;1.20;99.90;;;;;;5071556;28;20278;-48
2022/12/03 02:48:55;;;;;;;51.58;34.28;;;1.20;99.90;;;;;;5052855;28;20203;-48
2022/12/03 02:51:22;;;;;;;54.53;34.47;;;1.50;99.90;;;;;;5071754;28;20888;-48
2022/12/03 02:53:53;;;;;;;60.90;36.72;;;1.20;99.90;;;;;;5071633;28;20199;-47
2022/12/03 02:56:23;;;;;;;52.58;35.58;;;1.20;99.90;;;;;;5071767;28;20211;-47
2022/12/03 02:58:53;;;;;;;56.00;33.72;;;1.30;99.90;;;;;;5070981;28;20203;-46
2022/12/03 03:01:21;;;;;;;52.72;31.77;;;1.20;99.90;;;;;;5071526;28;20199;-47
2022/12/03 03:03:49;;;;;;;59.80;35.65;;;1.10;99.90;;;;;;5071854;28;20210;-49
2022/12/03 03:06:17;;;;;;;54.50;33.03;;;1.50;99.90;;;;;;5071722;28;20282;-47
2022/12/03 03:08:44;;;;;;;56.10;33.38;;;1.10;99.90;;;;;;5070790;28;20203;-47
2022/12/03 03:11:11;;;;;;;55.35;34.30;;;0.90;99.90;;;;;;5071175;28;20218;-48
2022/12/03 03:13:39;;;;;;;55.85;33.60;;;0.60;99.90;;;;;;5071171;28;20200;-48
2022/12/03 03:16:07;;;;;;;59.15;35.35;;;1.10;99.90;;;;;;5071183;28;20202;-48
2022/12/03 03:18:35;;;;;;;63.30;34.65;;;1.10;99.90;;;;;;5052007;28;20320;-48
2022/12/03 03:21:03;;;;;;;62.15;36.03;;;1.30;99.90;;;;;;5071403;28;20598;-48
2022/12/03 03:23:29;;;;;;;65.63;36.00;;;1.60;99.90;;;;;;5071063;28;20249;-48
2022/12/03 03:25:59;;;;;;;60.85;34.90;;;1.20;99.90;;;;;;5052998;28;20215;-47
2022/12/03 03:28:27;;;;;;;59.08;34.67;;;1.10;99.90;;;;;;5070307;28;20218;-47
2022/12/03 03:30:54;;;;;;;53.00;35.15;;;1.40;99.90;;;;;;5070719;28;20685;-46
2022/12/03 03:33:21;;;;;;;56.40;33.47;;;1.00;99.90;;;;;;5070911;28;20199;-48
2022/12/03 03:35:49;;;;;;;55.58;36.83;;;1.20;99.90;;;;;;5070713;28;20214;-48
2022/12/03 03:38:19;;;;;;;68.43;36.97;;;1.80;99.90;;;;;;5071005;28;20202;-48
2022/12/03 03:40:46;;;;;;;65.85;34.53;;;1.30;99.90;;;;;;5070386;28;20207;-49
2022/12/03 03:43:13;;;;;;;55.00;34.67;;;1.20;99.90;;;;;;5070863;28;20591;-48
2022/12/03 03:45:40;;;;;;;62.97;35.65;;;1.20;99.90;;;;;;5070770;28;20672;-47
2022/12/03 03:48:07;;;;;;;58.50;35.40;;;0.80;99.90;;;;;;5070898;28;20200;-47
2022/12/03 03:50:34;;;;;;;56.78;35.40;;;1.20;99.90;;;;;;5071294;28;20586;-48
2022/12/03 03:53:04;;;;;;;55.00;34.75;;;1.20;99.90;;;;;;5072601;28;20197;-48
2022/12/03 03:55:31;;;;;;;58.53;35.58;;;1.20;99.90;;;;;;5072237;28;20712;-48
2022/12/03 03:57:58;;;;;;;61.92;35.17;;;1.30;99.90;;;;;;5071253;28;20203;-48
2022/12/03 04:00:24;;;;;;;56.50;35.45;;;1.50;99.90;;;;;;5070210;28;20687;-46
2022/12/03 04:02:52;;;;;;;56.92;35.40;;;0.90;99.90;;;;;;5070810;28;20219;-48
2022/12/03 04:05:21;;;;;;;65.68;37.33;;;1.30;99.90;;;;;;5070740;28;20310;-48
2022/12/03 04:07:48;;;;;;;58.08;34.55;;;1.10;99.90;;;;;;5070683;28;20199;-47
2022/12/03 04:12:57;;;;;;;55.13;35.38;;;1.20;99.90;;;;;;5069628;28;20737;-47
2022/12/03 04:15:24;;;;;;;61.78;34.75;;;1.30;99.90;;;;;;5073917;28;20219;-47
2022/12/03 04:20:32;;;;;;;57.67;35.15;;;1.40;99.90;;;;;;5072549;28;20191;-48
2022/12/03 04:22:57;;;;;;;54.22;34.10;;;1.40;99.90;;;;;;5074119;28;20204;-48
2022/12/03 04:30:54;;;;;;;68.35;36.90;;;1.30;99.90;;;;;;5074021;28;20242;-47
2022/12/03 04:36:05;;;;;;;60.85;34.33;;;1.30;99.90;;;;;;5074041;28;20560;-48
2022/12/03 04:38:32;;;;;;;63.05;35.67;;;1.20;99.90;;;;;;5073284;28;20278;-47
2022/12/03 04:41:03;;;;;;;60.88;35.88;;;1.40;99.90;;;;;;5073779;28;20197;-47
2022/12/03 04:43:32;;;;;;;58.85;36.28;;;1.20;99.90;;;;;;5073870;28;20277;-47
2022/12/03 04:45:59;;;;;;;54.60;34.08;;;1.10;99.90;;;;;;5080652;22;20282;-47
2022/12/03 04:48:29;;;;;;;61.10;34.63;;;0.70;99.90;;;;;;5073566;28;20187;-50
2022/12/03 04:50:56;;;;;;;56.40;36.08;;;1.10;99.90;;;;;;5056087;28;20317;-46
2022/12/03 04:53:23;;;;;;;61.03;33.58;;;0.70;99.90;;;;;;5074081;28;20198;-47
2022/12/03 04:55:49;;;;;;;56.90;34.92;;;1.40;99.90;;;;;;5074015;28;20221;-47
2022/12/03 04:58:17;;;;;;;55.30;35.33;;;1.30;99.90;;;;;;5074658;28;20191;-47
2022/12/03 05:00:44;;;;;;;55.55;34.90;;;1.50;99.90;;;;;;5055964;28;20209;-47
2022/12/03 05:03:11;;;;;;;62.30;35.88;;;1.10;99.90;;;;;;5074222;28;20199;-47
2022/12/03 05:05:38;;;;;;;54.30;35.80;;;1.20;99.90;;;;;;5074028;28;20242;-47
2022/12/03 05:08:05;;;;;;;56.92;35.80;;;1.20;99.90;;;;;;5073961;28;20199;-47
2022/12/03 05:10:32;;;;;;;57.90;34.63;;;1.20;99.90;;;;;;5073297;28;20195;-47
2022/12/03 05:12:58;;;;;;;55.95;35.58;;;1.20;99.90;;;;;;5073834;28;20207;-47
2022/12/03 05:15:26;;;;;;;59.63;35.28;;;1.50;99.90;;;;;;5073779;28;20243;-50
2022/12/03 05:17:53;;;;;;;53.65;34.22;;;1.10;99.90;;;;;;5073533;28;20203;-47
2022/12/03 05:23:04;;;;;;;58.53;35.28;;;1.30;99.90;;;;;;5073801;28;20597;-47
2022/12/03 05:25:31;;;;;;;70.18;37.00;;;1.00;99.90;;;;;;5072151;28;20220;-47
2022/12/03 05:27:57;;;;;;;68.32;35.22;;;1.40;99.90;;;;;;5073600;28;20203;-48
2022/12/03 05:30:25;;;;;;;61.42;36.70;;;1.30;99.90;;;;;;5072728;28;20563;-47
2022/12/03 05:32:52;;;;;;;59.78;35.25;;;1.00;99.90;;;;;;5073077;28;20234;-47
2022/12/03 05:35:19;;;;;;;60.55;36.15;;;1.10;99.90;;;;;;5073352;28;20615;-46
2022/12/03 05:37:45;;;;;;;61.88;36.92;;;1.20;99.90;;;;;;5072970;28;20710;-47
2022/12/03 05:40:13;;;;;;;71.47;37.03;;;1.30;99.90;;;;;;5072483;28;20250;-47
2022/12/03 05:42:55;;;;;;;57.58;36.20;;;1.30;99.90;;;;;;5073063;28;20569;-47
2022/12/03 05:45:23;;;;;;;59.03;35.90;;;1.00;99.90;;;;;;5072760;28;20242;-47
2022/12/03 05:47:52;;;;;;;60.60;34.08;;;1.10;99.90;;;;;;5072883;28;20191;-47
2022/12/03 05:50:19;;;;;;;62.65;36.60;;;1.00;99.90;;;;;;5072315;28;20206;-46
2022/12/03 05:52:46;;;;;;;62.28;37.30;;;1.00;99.90;;;;;;5072898;28;20224;-47
2022/12/03 05:55:14;;;;;;;60.78;34.50;;;1.00;99.90;;;;;;5072775;28;20223;-45
2022/12/03 05:57:40;;;;;;;70.00;37.67;;;1.00;99.90;;;;;;5072959;28;20202;-46
2022/12/03 06:00:13;;;;;;;61.90;37.88;;;1.10;99.90;;;;;;5072220;28;20191;-47
2022/12/03 06:02:39;;;;;;;58.65;35.45;;;1.40;99.90;;;;;;5072804;28;20264;-46
2022/12/03 06:05:08;;;;;;;63.22;37.45;;;1.10;99.90;;;;;;5072723;28;20217;-49
2022/12/03 06:07:35;;;;;;;62.30;37.78;;;1.00;99.90;;;;;;5072725;28;20206;-47
2022/12/03 06:10:02;;;;;;;57.90;37.35;;;1.10;99.90;;;;;;5072045;28;20209;-47
2022/12/03 06:12:28;;;;;;;62.00;37.28;;;0.70;99.90;;;;;;5072444;28;20254;-47
2022/12/03 06:14:55;;;;;;;68.03;39.40;;;1.10;99.90;;;;;;5072470;28;20223;-46
2022/12/03 06:17:21;;;;;;;65.82;37.08;;;1.10;99.90;;;;;;5072374;28;20252;-46
2022/12/03 06:19:48;;;;;;;62.20;36.67;;;1.00;99.90;;;;;;5071806;28;20203;-45
2022/12/03 06:22:16;;;;;;;63.05;36.50;;;1.00;99.90;;;;;;5072336;28;20193;-50
2022/12/03 06:24:43;;;;;;;69.93;40.60;;;1.00;99.90;;;;;;5072505;28;20599;-48
2022/12/03 06:27:09;;;;;;;69.57;37.95;;;0.90;99.90;;;;;;5072981;28;20199;-46
2022/12/03 06:29:36;;;;;;;70.22;39.28;;;1.10;99.90;;;;;;5072230;28;20605;-46
2022/12/03 06:32:02;;;;;;;64.93;37.33;;;0.90;99.90;;;;;;5072464;28;20308;-46
2022/12/03 06:34:29;;;;;;;63.22;38.78;;;1.00;99.90;;;;;;5072654;28;20278;-45
2022/12/03 06:36:56;;;;;;;64.32;39.67;;;0.80;99.90;;;;;;5072539;28;20198;-47
2022/12/03 06:39:24;;;;;;;64.18;38.15;;;1.10;99.90;;;;;;5072176;28;20562;-45
2022/12/03 06:41:50;;;;;;;69.25;39.65;;;1.00;99.90;;;;;;5072522;28;20195;-46
2022/12/03 06:44:17;;;;;;;60.38;38.35;;;1.00;99.90;;;;;;5054563;28;20316;-48
2022/12/03 06:46:44;;;;;;;59.90;36.33;;;0.90;99.90;;;;;;5072438;28;20219;-46
2022/12/03 06:49:10;;;;;;;73.30;37.90;;;1.10;99.90;;;;;;5071860;28;20545;-47
2022/12/03 06:51:37;;;;;;;69.63;36.88;;;1.20;99.90;;;;;;5072288;28;20215;-46
2022/12/03 06:54:04;;;;;;;75.65;40.47;;;1.00;99.90;;;;;;5072070;28;20209;-47
2022/12/03 06:56:32;;;;;;;62.90;37.70;;;0.90;99.90;;;;;;5072069;28;20368;-47
2022/12/03 06:58:59;;;;;;;62.47;38.08;;;1.00;99.90;;;;;;5071197;28;20210;-46
2022/12/03 07:01:26;;;;;;;72.70;38.65;;;1.00;99.90;;;;;;5072059;28;20210;-47
2022/12/03 07:03:52;;;;;;;65.18;38.88;;;1.30;99.90;;;;;;5072484;28;20220;-47
2022/12/03 07:06:19;;;;;;;63.60;36.70;;;1.10;99.90;;;;;;5071932;28;20228;-47
2022/12/03 07:08:45;;;;;;;67.40;38.95;;;1.60;99.90;;;;;;5071147;28;20203;-49
2022/12/03 07:13:54;;;;;;;65.65;38.15;;;0.90;99.90;;;;;;5071217;28;20198;-47
2022/12/03 07:16:21;;;;;;;61.30;36.70;;;0.90;99.90;;;;;;5071583;28;20568;-47
2022/12/03 07:18:47;;;;;;;69.70;40.17;;;0.50;99.90;;;;;;5070935;28;20195;-47
2022/12/03 07:21:14;;;;;;;64.65;38.17;;;1.10;99.90;;;;;;5071669;28;20207;-49
2022/12/03 07:23:40;;;;;;;69.30;37.85;;;1.00;99.90;;;;;;5071571;28;20575;-48
2022/12/03 07:26:07;;;;;;;67.82;40.63;;;1.10;99.90;;;;;;5071496;28;20229;-48
2022/12/03 07:28:34;;;;;;;73.20;38.53;;;1.20;99.90;;;;;;5071233;28;20659;-45
2022/12/03 07:31:02;;;;;;;61.45;38.97;;;1.10;99.90;;;;;;5071819;28;20199;-46
2022/12/03 07:33:29;;;;;;;67.88;37.83;;;0.50;99.90;;;;;;5071599;28;20234;-46
2022/12/03 07:35:57;;;;;;;74.13;39.58;;;1.20;99.90;;;;;;5071683;28;20691;-46
2022/12/03 07:38:24;;;;;;;64.60;39.53;;;0.90;99.90;;;;;;5071066;28;20224;-47
2022/12/03 07:40:51;;;;;;;69.93;39.10;;;1.10;99.90;;;;;;5071125;28;20195;-48
2022/12/03 07:43:17;;;;;;;63.60;37.63;;;1.00;99.90;;;;;;5071903;28;20188;-47
2022/12/03 07:45:44;;;;;;;71.55;40.80;;;0.90;99.90;;;;;;5071372;28;20668;-47
2022/12/03 07:48:12;;;;;;;63.85;38.00;;;1.30;99.90;;;;;;5071757;28;20222;-48
2022/12/03 07:50:39;;;;;;;66.53;37.08;;;0.80;99.90;;;;;;5074706;28;20203;-50
2022/12/03 07:53:05;;;;;;;69.88;40.35;;;1.00;99.90;;;;;;5075211;28;20268;-47
2022/12/03 07:55:32;;;;;;;66.03;38.20;;;0.90;99.90;;;;;;5075052;28;20298;-47
2022/12/03 07:57:59;;;;;;;74.65;41.20;;;1.00;99.90;;;;;;5075166;28;20203;-47
2022/12/03 08:00:25;;;;;;;65.10;38.92;;;0.80;99.90;;;;;;5074484;28;20689;-47
2022/12/03 08:02:52;;;;;;;66.13;39.90;;;0.30;99.90;;;;;;5057394;28;20201;-47
2022/12/03 08:05:20;;;;;;;64.65;38.00;;;1.10;99.90;;;;;;5075235;28;20222;-47
2022/12/03 08:07:46;;;;;;;68.35;37.63;;;0.90;99.90;;;;;;5074865;28;20198;-47
2022/12/03 08:10:13;;;;;;;65.82;37.00;;;1.20;99.90;;;;;;5074287;28;20514;-50
2022/12/03 08:12:40;;;;;;;61.67;36.65;;;0.90;99.90;;;;;;5075046;28;20225;-48
2022/12/03 08:15:11;;;;;;;62.30;36.97;;;1.00;99.90;;;;;;5075142;28;20306;-47
2022/12/03 08:17:39;;;;;;;71.22;38.35;;;0.90;99.90;;;;;;5074703;28;20206;-50
2022/12/03 08:20:11;;;;;;;64.15;36.92;;;0.90;99.90;;;;;;5074084;28;20634;-49
2022/12/03 08:22:39;;;;;;;68.65;38.95;;;1.00;99.90;;;;;;5074685;28;20176;-47
2022/12/03 08:25:12;;;;;;;61.03;36.92;;;1.10;99.90;;;;;;5074705;28;20578;-46
2022/12/03 08:27:39;;;;;;;63.33;37.10;;;0.90;99.90;;;;;;5074627;28;20706;-46
2022/12/03 08:30:14;;;;;;;66.03;36.95;;;0.90;99.90;;;;;;5074180;28;20689;-46
2022/12/03 08:32:41;;;;;;;63.95;38.53;;;1.00;99.90;;;;;;5074852;28;20701;-47
2022/12/03 08:35:12;;;;;;;61.08;35.40;;;1.20;99.90;;;;;;5074612;28;20241;-48
2022/12/03 08:37:42;;;;;;;70.50;39.20;;;0.90;99.90;;;;;;5056714;28;20196;-47
2022/12/03 08:40:22;;;;;;;63.40;37.78;;;1.20;99.90;;;;;;5073976;28;20284;-47
2022/12/03 08:42:49;;;;;;;68.32;37.78;;;1.00;99.90;;;;;;5075134;28;20202;-47
2022/12/03 08:45:38;;;;;;;70.88;40.45;;;1.20;99.90;;;;;;5074520;28;20218;-47
2022/12/03 08:48:21;;;;;;;63.97;38.13;;;1.00;99.90;;;;;;5074566;28;20230;-48
2022/12/03 08:50:48;;;;;;;69.00;39.20;;;1.00;99.90;;;;;;5074042;28;20199;-48
2022/12/03 08:53:27;;;;;;;62.10;36.83;;;1.00;99.90;;;;;;5074158;28;20286;-48
2022/12/03 08:55:55;;;;;;;78.20;37.45;;;1.40;99.90;;;;;;5074197;28;20218;-47
2022/12/03 08:58:24;;;;;;;64.82;38.15;;;1.10;99.90;;;;;;5073867;28;20278;-51
2022/12/03 09:00:56;;;;;;;69.60;39.97;;;1.20;99.90;;;;;;5055312;28;20598;-48
2022/12/03 09:03:23;;;;;;;73.07;40.63;;;0.90;99.90;;;;;;5073874;28;20195;-47
2022/12/03 09:05:51;;;;;;;64.63;38.70;;;1.00;99.90;;;;;;5074087;28;20231;-47
2022/12/03 09:08:19;;;;;;;75.07;39.88;;;1.40;99.90;;;;;;5074263;28;20558;-47
2022/12/03 09:10:45;;;;;;;70.10;40.35;;;1.30;99.90;;;;;;5073246;28;20294;-46
2022/12/03 09:13:12;;;;;;;65.90;37.03;;;1.10;99.90;;;;;;5073722;28;20232;-47
2022/12/03 09:15:38;;;;;;;71.22;37.97;;;1.10;99.90;;;;;;5073581;28;20241;-47
2022/12/03 09:18:05;;;;;;;75.57;41.88;;;1.20;99.90;;;;;;5073445;28;20195;-47
2022/12/03 09:20:32;;;;;;;65.93;36.63;;;1.30;99.90;;;;;;5054686;28;20596;-47
2022/12/03 09:22:58;;;;;;;66.10;38.05;;;1.30;99.90;;;;;;5073200;28;20187;-47
2022/12/03 09:25:26;;;;;;;73.35;40.05;;;1.40;99.90;;;;;;5073261;28;20221;-49
2022/12/03 09:27:53;;;;;;;72.65;37.53;;;1.20;99.90;;;;;;5073225;28;20210;-47
2022/12/03 09:30:20;;;;;;;62.85;38.28;;;1.60;99.90;;;;;;5054831;28;20673;-47
2022/12/03 09:32:46;;;;;;;65.30;38.63;;;1.30;99.90;;;;;;5073397;28;20581;-47
2022/12/03 09:35:13;;;;;;;66.10;36.65;;;1.40;99.90;;;;;;5072998;28;20581;-48
2022/12/03 09:37:39;;;;;;;64.90;38.45;;;1.60;99.90;;;;;;5072777;28;20218;-48
2022/12/03 09:40:07;;;;;;;71.28;36.92;;;1.60;99.90;;;;;;5072811;28;20203;-47
2022/12/03 09:42:36;;;;;;;68.95;37.25;;;1.40;99.90;;;;;;5073201;28;20190;-48
2022/12/03 09:45:05;;;;;;;64.32;36.13;;;1.70;99.90;;;;;;5072868;28;20749;-47
2022/12/03 09:47:32;;;;;;;75.50;37.40;;;1.80;99.90;;;;;;5072844;28;20685;-47
2022/12/03 09:49:58;;;;;;;65.40;38.95;;;1.70;99.90;;;;;;5073056;28;20223;-47
2022/12/03 09:52:28;;;;;;;62.00;37.10;;;1.70;99.90;;;;;;5074096;28;20227;-47
2022/12/03 09:54:54;;;;;;;64.70;37.45;;;2.10;99.90;;;;;;5074094;28;20226;-48
2022/12/03 09:57:21;;;;;;;76.03;38.65;;;2.10;99.90;;;;;;5073571;28;20203;-47
2022/12/03 09:59:49;;;;;;;68.70;39.60;;;1.80;99.90;;;;;;5072516;28;20290;-48
2022/12/03 10:02:21;;;;;;;67.25;39.40;;;1.90;99.90;;;;;;5072766;28;20849;-48
2022/12/03 10:04:48;;;;;;;59.67;35.72;;;2.10;99.90;;;;;;5072893;28;20551;-47
2022/12/03 10:07:14;;;;;;;67.93;37.20;;;2.20;99.90;;;;;;5054749;28;20203;-48
2022/12/03 10:09:41;;;;;;;61.70;36.75;;;1.50;99.90;;;;;;5071536;28;20214;-47
2022/12/03 10:12:10;;;;;;;68.88;39.47;;;2.10;99.90;;;;;;5071553;28;20427;-47
2022/12/03 10:14:37;;;;;;;74.63;40.17;;;2.40;99.90;;;;;;5072240;28;20211;-48
2022/12/03 10:17:05;;;;;;;69.82;38.30;;;1.80;99.90;;;;;;5054242;28;20592;-47
2022/12/03 10:19:34;;;;;;;62.25;35.10;;;1.90;99.90;;;;;;5053679;28;20660;-47
2022/12/03 10:22:01;;;;;;;65.88;36.55;;;1.90;99.90;;;;;;5072131;28;20571;-48
2022/12/03 10:24:30;;;;;;;61.05;35.45;;;2.00;99.90;;;;;;5072075;28;20216;-47
2022/12/03 10:26:58;;;;;;;72.90;36.47;;;2.10;99.90;;;;;;5072279;28;20553;-49
2022/12/03 10:29:27;;;;;;;69.28;38.92;;;1.70;99.90;;;;;;5071249;28;20195;-47
2022/12/03 10:31:58;;;;;;;68.05;37.28;;;1.20;99.90;;;;;;5072318;28;20545;-47
2022/12/03 10:34:29;;;;;;;73.45;37.10;;;1.90;99.90;;;;;;5072098;28;20231;-46
2022/12/03 10:37:14;;;;;;;78.60;37.60;;;1.60;99.90;;;;;;5072346;28;20626;-47
2022/12/03 10:39:56;;;;;;;71.82;37.53;;;2.20;99.90;;;;;;5072230;28;20252;-48
2022/12/03 10:42:24;;;;;;;73.40;36.35;;;1.90;99.90;;;;;;5071653;28;20545;-49
2022/12/03 10:45:17;;;;;;;72.78;35.95;;;1.60;99.90;;;;;;5072598;28;20237;-50
2022/12/03 10:48:00;;;;;;;75.43;37.45;;;1.30;99.90;;;;;;5071670;28;20675;-49
2022/12/03 10:50:30;;;;;;;67.50;36.58;;;1.30;99.90;;;;;;5071135;28;20183;-50
2022/12/03 10:52:56;;;;;;;67.07;36.80;;;1.40;99.90;;;;;;5071789;28;20223;-49
2022/12/03 10:55:23;;;;;;;65.72;35.78;;;1.30;99.90;;;;;;5071483;28;20214;-51
2022/12/03 10:57:50;;;;;;;65.63;36.55;;;1.50;99.90;;;;;;5071618;28;20223;-51
2022/12/03 11:00:18;;;;;;;61.13;35.53;;;1.40;99.90;;;;;;5070749;28;20198;-50
2022/12/03 11:02:46;;;;;;;65.68;35.28;;;1.30;99.90;;;;;;5071683;28;20198;-51
2022/12/03 11:05:15;;;;;;;75.72;39.00;;;2.10;99.90;;;;;;5071526;28;20698;-48
2022/12/03 11:07:44;;;;;;;72.40;40.58;;;1.40;99.90;;;;;;5072099;28;20225;-49
2022/12/03 11:10:14;;;;;;;65.95;36.85;;;2.20;99.90;;;;;;5070573;28;20203;-49
2022/12/03 11:12:41;;;;;;;72.75;36.88;;;1.00;99.90;;;;;;5071390;28;20219;-50
2022/12/03 11:15:14;;;;;;;67.78;33.88;;;1.20;99.90;;;;;;5071128;28;20218;-49
2022/12/03 11:17:46;;;;;;;63.22;34.40;;;1.70;99.90;;;;;;5071427;28;20187;-50
2022/12/03 11:20:47;;;;;;;70.13;36.10;;;1.60;99.90;;;;;;5070584;28;20221;-50
2022/12/03 11:23:15;;;;;;;73.93;37.60;;;1.50;99.90;;;;;;5073262;28;20540;-50
2022/12/03 11:25:50;;;;;;;67.70;35.25;;;1.50;99.90;;;;;;5075395;28;20234;-51
2022/12/03 11:28:35;;;;;;;65.57;35.00;;;1.50;99.90;;;;;;5075488;28;20226;-49
2022/12/03 11:31:08;;;;;;;69.65;35.00;;;1.60;99.90;;;;;;5075451;28;20218;-49
2022/12/03 11:33:56;;;;;;;63.70;34.35;;;1.30;99.90;;;;;;5057197;28;20254;-50
2022/12/03 11:36:22;;;;;;;62.60;34.33;;;1.70;99.90;;;;;;5032819;28;20619;-49
2022/12/03 11:38:56;;;;;;;70.55;36.03;;;1.70;99.90;;;;;;5032095;28;20436;-50
2022/12/03 11:41:29;;;;;;;58.80;33.47;;;1.10;99.90;;;;;;5050651;28;20339;-50
2022/12/03 11:44:31;;;;;;;63.75;33.85;;;1.60;99.90;;;;;;5075231;28;20569;-50
2022/12/03 11:47:00;;;;;;;68.18;37.20;;;1.70;99.90;;;;;;5075145;28;20226;-48
2022/12/03 11:49:39;;;;;;;67.78;36.35;;;2.20;99.90;;;;;;5074313;28;20196;-50
2022/12/03 11:52:26;;;;;;;67.53;34.97;;;2.00;99.90;;;;;;5075131;28;20195;-50
2022/12/03 11:54:59;;;;;;;72.55;37.17;;;1.70;99.90;;;;;;5056432;28;20230;-51
2022/12/03 11:57:30;;;;;;;76.20;35.55;;;1.50;99.90;;;;;;5056921;28;20199;-50
2022/12/03 12:00:04;;;;;;;72.32;35.05;;;1.80;99.90;;;;;;5073852;28;20192;-50
2022/12/03 12:02:38;;;;;;;71.25;36.70;;;1.90;99.90;;;;;;5074643;28;20199;-51
2022/12/03 12:05:23;;;;;;;70.32;35.38;;;2.00;99.90;;;;;;5074500;28;20226;-51
2022/12/03 12:07:50;;;;;;;63.38;35.00;;;1.90;99.90;;;;;;5074632;28;20218;-49
2022/12/03 12:10:43;;;;;;;62.90;31.75;;;1.80;99.90;;;;;;5073736;28;20201;-50
2022/12/03 12:13:47;;;;;;;61.63;34.95;;;1.70;99.90;;;;;;5074756;28;20203;-51
2022/12/03 12:16:39;;;;;;;64.10;33.58;;;1.80;99.90;;;;;;5071449;28;20621;-50
2022/12/03 12:19:32;;;;;;;69.32;34.35;;;1.80;99.90;;;;;;5074027;28;20248;-50
2022/12/03 12:22:33;;;;;;;73.25;34.90;;;1.70;99.90;;;;;;5074633;28;20211;-50
2022/12/03 12:25:02;;;;;;;70.93;34.90;;;2.00;99.90;;;;;;5050005;28;20218;-49
2022/12/03 12:27:36;;;;;;;63.58;35.20;;;2.00;99.90;;;;;;5074407;28;20206;-49
2022/12/03 12:30:06;;;;;;;76.85;39.95;;;2.00;99.90;;;;;;5073471;28;20210;-49
2022/12/03 12:32:38;;;;;;;69.90;37.17;;;2.00;99.90;;;;;;5073926;28;20199;-50
2022/12/03 12:35:16;;;;;;;72.38;34.65;;;1.80;99.90;;;;;;5073463;28;20223;-49
2022/12/03 12:37:48;;;;;;;69.32;36.25;;;1.80;99.90;;;;;;5074043;28;20206;-50
2022/12/03 12:40:16;;;;;;;65.93;34.00;;;1.90;99.90;;;;;;5073383;28;20213;-50
2022/12/03 12:42:49;;;;;;;66.30;36.05;;;2.00;99.90;;;;;;5074015;28;20731;-50
2022/12/03 12:45:19;;;;;;;66.07;34.55;;;1.80;99.90;;;;;;5073617;28;20231;-50
2022/12/03 12:47:49;;;;;;;67.72;35.70;;;1.90;99.90;;;;;;5074100;28;20253;-49
2022/12/03 12:50:18;;;;;;;65.88;33.85;;;1.50;99.90;;;;;;5073258;28;20196;-49
2022/12/03 12:52:53;;;;;;;60.20;32.78;;;1.90;99.90;;;;;;5073489;28;20203;-49
2022/12/03 12:55:22;;;;;;;59.95;32.78;;;2.10;99.90;;;;;;5073433;28;20247;-49
2022/12/03 12:57:49;;;;;;;61.90;32.47;;;1.40;99.90;;;;;;5073558;28;20321;-50
2022/12/03 13:00:19;;;;;;;61.05;32.15;;;2.00;99.90;;;;;;5072686;28;20199;-49
2022/12/03 13:02:53;;;;;;;67.20;33.13;;;1.50;99.90;;;;;;5073789;28;20191;-49
2022/12/03 13:05:20;;;;;;;61.90;34.63;;;1.50;99.90;;;;;;5073570;28;20218;-49
2022/12/03 13:07:48;;;;;;;76.60;34.53;;;1.50;99.90;;;;;;5073589;28;20191;-49